sensor_id;sensor_type;location;lat;lon;timestamp;P1;durP1;ratioP1;P2;durP2;ratioP2
46463;SDS011;32161;48.148;-1.554;2023-02-22T00:00:26;70.85;;;23.70;;
46463;SDS011;32161;48.148;-1.554;2023-02-22T00:03:09;66.00;;;24.77;;
46463;SDS011;32161;48.148;-1.554;2023-02-22T00:05:40;48.30;;;24.27;;
46463;SDS011;32161;48.148;-1.554;2023-02-22T00:08:11;45.58;;;23.45;;
46463;SDS011;32161;48.148;-1.554;2023-02-22T00:10:40;43.03;;;23.25;;
46463;SDS011;32161;48.148;-1.554;2023-02-22T00:13:08;43.25;;;22.15;;
46463;SDS011;32161;48.148;-1.554;2023-02-22T00:15:38;33.70;;;22.17;;
46463;SDS011;32161;48.148;-1.554;2023-02-22T00:18:07;49.25;;;21.80;;
46463;SDS011;32161;48.148;-1.554;2023-02-22T00:23:06;80.13;;;22.25;;
46463;SDS011;32161;48.148;-1.554;2023-02-22T00:25:39;78.38;;;22.65;;
46463;SDS011;32161;48.148;-1.554;2023-02-22T00:28:07;106.05;;;22.63;;
46463;SDS011;32161;48.148;-1.554;2023-02-22T00:30:34;64.15;;;21.80;;
46463;SDS011;32161;48.148;-1.554;2023-02-22T00:33:02;49.65;;;21.30;;
46463;SDS011;32161;48.148;-1.554;2023-02-22T00:35:32;62.10;;;21.35;;
46463;SDS011;32161;48.148;-1.554;2023-02-22T00:38:00;96.68;;;23.85;;
46463;SDS011;32161;48.148;-1.554;2023-02-22T00:40:29;36.08;;;21.88;;
46463;SDS011;32161;48.148;-1.554;2023-02-22T00:42:59;60.17;;;20.98;;
46463;SDS011;32161;48.148;-1.554;2023-02-22T00:45:30;82.90;;;21.20;;
46463;SDS011;32161;48.148;-1.554;2023-02-22T00:48:00;63.42;;;21.65;;
46463;SDS011;32161;48.148;-1.554;2023-02-22T00:50:29;52.88;;;21.38;;
46463;SDS011;32161;48.148;-1.554;2023-02-22T00:52:59;61.25;;;23.33;;
46463;SDS011;32161;48.148;-1.554;2023-02-22T00:55:29;50.05;;;23.00;;
46463;SDS011;32161;48.148;-1.554;2023-02-22T00:57:58;61.47;;;26.80;;
46463;SDS011;32161;48.148;-1.554;2023-02-22T01:00:27;39.72;;;23.50;;
46463;SDS011;32161;48.148;-1.554;2023-02-22T01:02:59;47.60;;;22.25;;
46463;SDS011;32161;48.148;-1.554;2023-02-22T01:05:28;37.10;;;23.60;;
46463;SDS011;32161;48.148;-1.554;2023-02-22T01:07:59;68.13;;;26.33;;
46463;SDS011;32161;48.148;-1.554;2023-02-22T01:10:28;71.10;;;27.05;;
46463;SDS011;32161;48.148;-1.554;2023-02-22T01:12:57;44.20;;;25.98;;
46463;SDS011;32161;48.148;-1.554;2023-02-22T01:15:26;34.42;;;23.45;;
46463;SDS011;32161;48.148;-1.554;2023-02-22T01:17:56;46.22;;;27.17;;
46463;SDS011;32161;48.148;-1.554;2023-02-22T01:20:25;42.83;;;24.95;;
46463;SDS011;32161;48.148;-1.554;2023-02-22T01:22:54;38.10;;;25.70;;
46463;SDS011;32161;48.148;-1.554;2023-02-22T01:25:27;66.60;;;30.53;;
46463;SDS011;32161;48.148;-1.554;2023-02-22T01:27:58;47.30;;;26.92;;
46463;SDS011;32161;48.148;-1.554;2023-02-22T01:30:29;46.35;;;25.50;;
46463;SDS011;32161;48.148;-1.554;2023-02-22T01:32:59;67.88;;;35.13;;
46463;SDS011;32161;48.148;-1.554;2023-02-22T01:35:30;65.88;;;35.88;;
46463;SDS011;32161;48.148;-1.554;2023-02-22T01:38:00;64.47;;;34.63;;
46463;SDS011;32161;48.148;-1.554;2023-02-22T01:40:30;34.90;;;23.05;;
46463;SDS011;32161;48.148;-1.554;2023-02-22T01:43:00;47.42;;;24.00;;
46463;SDS011;32161;48.148;-1.554;2023-02-22T01:45:37;51.90;;;22.95;;
46463;SDS011;32161;48.148;-1.554;2023-02-22T01:48:14;30.90;;;20.98;;
46463;SDS011;32161;48.148;-1.554;2023-02-22T01:50:49;35.10;;;23.88;;
46463;SDS011;32161;48.148;-1.554;2023-02-22T01:53:22;43.00;;;25.33;;
46463;SDS011;32161;48.148;-1.554;2023-02-22T01:55:57;33.03;;;24.58;;
46463;SDS011;32161;48.148;-1.554;2023-02-22T01:58:25;39.72;;;25.80;;
46463;SDS011;32161;48.148;-1.554;2023-02-22T02:00:56;44.47;;;25.17;;
46463;SDS011;32161;48.148;-1.554;2023-02-22T02:03:26;38.25;;;26.42;;
46463;SDS011;32161;48.148;-1.554;2023-02-22T02:05:57;38.15;;;24.48;;
46463;SDS011;32161;48.148;-1.554;2023-02-22T02:08:32;39.50;;;27.63;;
46463;SDS011;32161;48.148;-1.554;2023-02-22T02:11:06;45.42;;;26.63;;
46463;SDS011;32161;48.148;-1.554;2023-02-22T02:13:35;37.00;;;23.92;;
46463;SDS011;32161;48.148;-1.554;2023-02-22T02:16:04;49.63;;;26.55;;
46463;SDS011;32161;48.148;-1.554;2023-02-22T02:18:32;50.17;;;24.92;;
46463;SDS011;32161;48.148;-1.554;2023-02-22T02:21:20;41.05;;;24.08;;
46463;SDS011;32161;48.148;-1.554;2023-02-22T02:34:39;42.53;;;26.42;;
46463;SDS011;32161;48.148;-1.554;2023-02-22T02:37:15;41.30;;;25.17;;
46463;SDS011;32161;48.148;-1.554;2023-02-22T02:39:50;43.13;;;26.05;;
46463;SDS011;32161;48.148;-1.554;2023-02-22T02:42:27;35.15;;;24.98;;
46463;SDS011;32161;48.148;-1.554;2023-02-22T02:45:04;41.03;;;26.35;;
46463;SDS011;32161;48.148;-1.554;2023-02-22T02:47:39;50.17;;;28.30;;
46463;SDS011;32161;48.148;-1.554;2023-02-22T02:50:12;35.38;;;25.55;;
46463;SDS011;32161;48.148;-1.554;2023-02-22T02:52:45;44.67;;;27.67;;
46463;SDS011;32161;48.148;-1.554;2023-02-22T02:55:14;44.58;;;27.50;;
46463;SDS011;32161;48.148;-1.554;2023-02-22T02:57:44;42.28;;;26.17;;
46463;SDS011;32161;48.148;-1.554;2023-02-22T03:00:12;41.70;;;25.98;;
46463;SDS011;32161;48.148;-1.554;2023-02-22T03:02:56;44.42;;;28.98;;
46463;SDS011;32161;48.148;-1.554;2023-02-22T03:08:27;44.78;;;27.40;;
46463;SDS011;32161;48.148;-1.554;2023-02-22T03:11:04;42.95;;;27.45;;
46463;SDS011;32161;48.148;-1.554;2023-02-22T03:13:42;46.78;;;27.70;;
46463;SDS011;32161;48.148;-1.554;2023-02-22T03:16:20;44.50;;;27.00;;
46463;SDS011;32161;48.148;-1.554;2023-02-22T03:19:02;42.92;;;27.35;;
46463;SDS011;32161;48.148;-1.554;2023-02-22T03:21:39;43.00;;;27.65;;
46463;SDS011;32161;48.148;-1.554;2023-02-22T03:24:16;40.60;;;27.85;;
46463;SDS011;32161;48.148;-1.554;2023-02-22T03:26:52;41.60;;;27.00;;
46463;SDS011;32161;48.148;-1.554;2023-02-22T03:29:27;45.47;;;26.73;;
46463;SDS011;32161;48.148;-1.554;2023-02-22T03:31:59;43.33;;;27.80;;
46463;SDS011;32161;48.148;-1.554;2023-02-22T03:34:32;42.45;;;27.85;;
46463;SDS011;32161;48.148;-1.554;2023-02-22T03:37:06;42.92;;;29.10;;
46463;SDS011;32161;48.148;-1.554;2023-02-22T03:39:40;44.35;;;28.25;;
46463;SDS011;32161;48.148;-1.554;2023-02-22T03:42:10;43.78;;;28.15;;
46463;SDS011;32161;48.148;-1.554;2023-02-22T03:44:43;43.85;;;28.92;;
46463;SDS011;32161;48.148;-1.554;2023-02-22T03:47:13;45.80;;;28.38;;
46463;SDS011;32161;48.148;-1.554;2023-02-22T03:49:50;46.92;;;28.52;;
46463;SDS011;32161;48.148;-1.554;2023-02-22T03:52:21;42.45;;;28.05;;
46463;SDS011;32161;48.148;-1.554;2023-02-22T03:54:49;46.13;;;28.17;;
46463;SDS011;32161;48.148;-1.554;2023-02-22T03:57:20;43.33;;;27.88;;
46463;SDS011;32161;48.148;-1.554;2023-02-22T03:59:52;43.28;;;29.33;;
46463;SDS011;32161;48.148;-1.554;2023-02-22T04:02:20;43.80;;;27.67;;
46463;SDS011;32161;48.148;-1.554;2023-02-22T04:04:48;44.20;;;28.25;;
46463;SDS011;32161;48.148;-1.554;2023-02-22T04:07:17;48.08;;;27.08;;
46463;SDS011;32161;48.148;-1.554;2023-02-22T04:09:45;41.63;;;26.45;;
46463;SDS011;32161;48.148;-1.554;2023-02-22T04:12:12;45.08;;;27.02;;
46463;SDS011;32161;48.148;-1.554;2023-02-22T04:14:40;41.05;;;26.65;;
46463;SDS011;32161;48.148;-1.554;2023-02-22T04:17:07;38.80;;;27.35;;
46463;SDS011;32161;48.148;-1.554;2023-02-22T04:19:35;39.65;;;25.95;;
46463;SDS011;32161;48.148;-1.554;2023-02-22T04:22:04;46.05;;;26.63;;
46463;SDS011;32161;48.148;-1.554;2023-02-22T04:24:32;38.15;;;24.95;;
46463;SDS011;32161;48.148;-1.554;2023-02-22T04:26:59;39.40;;;25.42;;
46463;SDS011;32161;48.148;-1.554;2023-02-22T04:29:27;45.38;;;26.10;;
46463;SDS011;32161;48.148;-1.554;2023-02-22T04:31:55;42.55;;;25.65;;
46463;SDS011;32161;48.148;-1.554;2023-02-22T04:34:22;40.97;;;26.38;;
46463;SDS011;32161;48.148;-1.554;2023-02-22T04:36:50;42.40;;;26.67;;
46463;SDS011;32161;48.148;-1.554;2023-02-22T04:39:19;36.83;;;24.90;;
46463;SDS011;32161;48.148;-1.554;2023-02-22T04:41:47;42.70;;;26.98;;
46463;SDS011;32161;48.148;-1.554;2023-02-22T04:44:14;39.17;;;26.17;;
46463;SDS011;32161;48.148;-1.554;2023-02-22T04:46:42;40.55;;;25.48;;
46463;SDS011;32161;48.148;-1.554;2023-02-22T04:49:10;42.17;;;26.70;;
46463;SDS011;32161;48.148;-1.554;2023-02-22T04:51:38;40.25;;;26.02;;
46463;SDS011;32161;48.148;-1.554;2023-02-22T04:54:06;35.17;;;26.10;;
46463;SDS011;32161;48.148;-1.554;2023-02-22T04:56:35;41.00;;;26.33;;
46463;SDS011;32161;48.148;-1.554;2023-02-22T04:59:03;40.05;;;25.40;;
46463;SDS011;32161;48.148;-1.554;2023-02-22T05:01:31;37.78;;;24.77;;
46463;SDS011;32161;48.148;-1.554;2023-02-22T05:04:00;39.63;;;25.13;;
46463;SDS011;32161;48.148;-1.554;2023-02-22T05:06:28;38.35;;;25.33;;
46463;SDS011;32161;48.148;-1.554;2023-02-22T05:08:56;38.90;;;25.40;;
46463;SDS011;32161;48.148;-1.554;2023-02-22T05:11:23;37.47;;;24.00;;
46463;SDS011;32161;48.148;-1.554;2023-02-22T05:13:52;39.15;;;25.38;;
46463;SDS011;32161;48.148;-1.554;2023-02-22T05:16:20;39.13;;;24.67;;
46463;SDS011;32161;48.148;-1.554;2023-02-22T05:18:47;32.67;;;22.98;;
46463;SDS011;32161;48.148;-1.554;2023-02-22T05:21:15;32.85;;;23.90;;
46463;SDS011;32161;48.148;-1.554;2023-02-22T05:23:43;41.58;;;24.92;;
46463;SDS011;32161;48.148;-1.554;2023-02-22T05:26:10;39.35;;;24.80;;
46463;SDS011;32161;48.148;-1.554;2023-02-22T05:28:38;36.40;;;25.00;;
46463;SDS011;32161;48.148;-1.554;2023-02-22T05:31:07;38.55;;;24.95;;
46463;SDS011;32161;48.148;-1.554;2023-02-22T05:33:34;35.85;;;25.05;;
46463;SDS011;32161;48.148;-1.554;2023-02-22T05:36:04;32.00;;;23.73;;
46463;SDS011;32161;48.148;-1.554;2023-02-22T05:38:32;31.42;;;24.05;;
46463;SDS011;32161;48.148;-1.554;2023-02-22T05:41:07;32.58;;;23.30;;
46463;SDS011;32161;48.148;-1.554;2023-02-22T05:43:35;36.97;;;22.98;;
46463;SDS011;32161;48.148;-1.554;2023-02-22T05:46:03;34.47;;;23.40;;
46463;SDS011;32161;48.148;-1.554;2023-02-22T05:48:33;31.52;;;21.85;;
46463;SDS011;32161;48.148;-1.554;2023-02-22T05:51:00;31.38;;;22.77;;
46463;SDS011;32161;48.148;-1.554;2023-02-22T05:53:29;36.05;;;23.95;;
46463;SDS011;32161;48.148;-1.554;2023-02-22T05:55:57;39.97;;;24.75;;
46463;SDS011;32161;48.148;-1.554;2023-02-22T05:58:24;35.28;;;23.48;;
46463;SDS011;32161;48.148;-1.554;2023-02-22T06:00:52;34.45;;;24.20;;
46463;SDS011;32161;48.148;-1.554;2023-02-22T06:03:20;33.28;;;24.95;;
46463;SDS011;32161;48.148;-1.554;2023-02-22T06:05:49;35.20;;;23.77;;
46463;SDS011;32161;48.148;-1.554;2023-02-22T06:08:16;36.05;;;23.58;;
46463;SDS011;32161;48.148;-1.554;2023-02-22T06:10:44;33.63;;;23.58;;
46463;SDS011;32161;48.148;-1.554;2023-02-22T06:13:11;34.85;;;23.85;;
46463;SDS011;32161;48.148;-1.554;2023-02-22T06:15:39;38.95;;;25.65;;
46463;SDS011;32161;48.148;-1.554;2023-02-22T06:18:06;35.05;;;23.65;;
46463;SDS011;32161;48.148;-1.554;2023-02-22T06:20:35;36.53;;;23.88;;
46463;SDS011;32161;48.148;-1.554;2023-02-22T06:23:04;34.53;;;22.73;;
46463;SDS011;32161;48.148;-1.554;2023-02-22T06:25:32;36.78;;;23.38;;
46463;SDS011;32161;48.148;-1.554;2023-02-22T06:28:00;38.33;;;22.05;;
46463;SDS011;32161;48.148;-1.554;2023-02-22T06:30:28;35.78;;;24.08;;
46463;SDS011;32161;48.148;-1.554;2023-02-22T06:32:56;35.95;;;24.77;;
46463;SDS011;32161;48.148;-1.554;2023-02-22T06:35:24;72.60;;;45.85;;
46463;SDS011;32161;48.148;-1.554;2023-02-22T06:37:51;67.65;;;44.78;;
46463;SDS011;32161;48.148;-1.554;2023-02-22T06:40:21;44.40;;;30.15;;
46463;SDS011;32161;48.148;-1.554;2023-02-22T06:42:53;37.97;;;24.90;;
46463;SDS011;32161;48.148;-1.554;2023-02-22T06:45:21;30.15;;;22.23;;
46463;SDS011;32161;48.148;-1.554;2023-02-22T06:47:49;31.35;;;22.33;;
46463;SDS011;32161;48.148;-1.554;2023-02-22T06:50:18;31.65;;;22.05;;
46463;SDS011;32161;48.148;-1.554;2023-02-22T06:52:49;35.13;;;22.65;;
46463;SDS011;32161;48.148;-1.554;2023-02-22T06:55:17;33.38;;;22.58;;
46463;SDS011;32161;48.148;-1.554;2023-02-22T06:57:48;35.95;;;24.60;;
46463;SDS011;32161;48.148;-1.554;2023-02-22T07:00:17;32.58;;;21.23;;
46463;SDS011;32161;48.148;-1.554;2023-02-22T07:02:47;30.20;;;21.35;;
46463;SDS011;32161;48.148;-1.554;2023-02-22T07:05:15;35.22;;;22.40;;
46463;SDS011;32161;48.148;-1.554;2023-02-22T07:07:44;31.42;;;22.05;;
46463;SDS011;32161;48.148;-1.554;2023-02-22T07:10:15;33.53;;;22.85;;
46463;SDS011;32161;48.148;-1.554;2023-02-22T07:12:47;33.42;;;22.17;;
46463;SDS011;32161;48.148;-1.554;2023-02-22T07:15:16;35.20;;;23.07;;
46463;SDS011;32161;48.148;-1.554;2023-02-22T07:17:45;32.15;;;20.40;;
46463;SDS011;32161;48.148;-1.554;2023-02-22T07:20:14;30.75;;;22.15;;
46463;SDS011;32161;48.148;-1.554;2023-02-22T07:22:42;40.92;;;26.02;;
46463;SDS011;32161;48.148;-1.554;2023-02-22T07:25:09;35.67;;;23.27;;
46463;SDS011;32161;48.148;-1.554;2023-02-22T07:27:37;45.42;;;32.17;;
46463;SDS011;32161;48.148;-1.554;2023-02-22T07:30:09;48.40;;;34.40;;
46463;SDS011;32161;48.148;-1.554;2023-02-22T07:32:43;44.85;;;30.15;;
46463;SDS011;32161;48.148;-1.554;2023-02-22T07:35:15;39.13;;;26.33;;
46463;SDS011;32161;48.148;-1.554;2023-02-22T07:37:45;35.58;;;23.27;;
46463;SDS011;32161;48.148;-1.554;2023-02-22T07:40:13;37.50;;;24.75;;
46463;SDS011;32161;48.148;-1.554;2023-02-22T07:42:55;34.80;;;22.75;;
46463;SDS011;32161;48.148;-1.554;2023-02-22T07:45:27;36.42;;;22.50;;
46463;SDS011;32161;48.148;-1.554;2023-02-22T07:47:56;43.35;;;23.15;;
46463;SDS011;32161;48.148;-1.554;2023-02-22T07:50:25;35.67;;;24.20;;
46463;SDS011;32161;48.148;-1.554;2023-02-22T07:52:55;42.10;;;23.45;;
46463;SDS011;32161;48.148;-1.554;2023-02-22T07:55:25;44.08;;;25.23;;
46463;SDS011;32161;48.148;-1.554;2023-02-22T07:57:55;42.17;;;23.90;;
46463;SDS011;32161;48.148;-1.554;2023-02-22T08:00:27;55.33;;;25.87;;
46463;SDS011;32161;48.148;-1.554;2023-02-22T08:02:57;44.03;;;24.85;;
46463;SDS011;32161;48.148;-1.554;2023-02-22T08:05:26;37.67;;;22.45;;
46463;SDS011;32161;48.148;-1.554;2023-02-22T08:07:56;47.88;;;24.95;;
46463;SDS011;32161;48.148;-1.554;2023-02-22T08:10:24;40.13;;;25.63;;
46463;SDS011;32161;48.148;-1.554;2023-02-22T08:12:53;38.53;;;25.00;;
46463;SDS011;32161;48.148;-1.554;2023-02-22T08:15:22;40.53;;;25.05;;
46463;SDS011;32161;48.148;-1.554;2023-02-22T08:17:55;35.33;;;23.50;;
46463;SDS011;32161;48.148;-1.554;2023-02-22T08:20:24;36.88;;;23.83;;
46463;SDS011;32161;48.148;-1.554;2023-02-22T08:22:52;35.97;;;22.83;;
46463;SDS011;32161;48.148;-1.554;2023-02-22T08:25:22;37.67;;;24.00;;
46463;SDS011;32161;48.148;-1.554;2023-02-22T08:27:55;36.30;;;23.30;;
46463;SDS011;32161;48.148;-1.554;2023-02-22T08:30:25;38.53;;;24.67;;
46463;SDS011;32161;48.148;-1.554;2023-02-22T08:32:56;34.70;;;23.30;;
46463;SDS011;32161;48.148;-1.554;2023-02-22T08:35:24;34.25;;;23.27;;
46463;SDS011;32161;48.148;-1.554;2023-02-22T08:37:55;45.53;;;26.13;;
46463;SDS011;32161;48.148;-1.554;2023-02-22T08:40:25;44.13;;;28.52;;
46463;SDS011;32161;48.148;-1.554;2023-02-22T08:42:56;39.85;;;24.25;;
46463;SDS011;32161;48.148;-1.554;2023-02-22T08:45:25;36.92;;;23.20;;
46463;SDS011;32161;48.148;-1.554;2023-02-22T08:47:53;35.33;;;23.15;;
46463;SDS011;32161;48.148;-1.554;2023-02-22T08:50:23;31.77;;;21.67;;
46463;SDS011;32161;48.148;-1.554;2023-02-22T08:52:53;38.85;;;22.77;;
46463;SDS011;32161;48.148;-1.554;2023-02-22T08:55:25;34.28;;;21.88;;
46463;SDS011;32161;48.148;-1.554;2023-02-22T08:57:56;33.97;;;21.90;;
46463;SDS011;32161;48.148;-1.554;2023-02-22T09:00:25;33.35;;;22.63;;
46463;SDS011;32161;48.148;-1.554;2023-02-22T09:02:56;34.95;;;23.08;;
46463;SDS011;32161;48.148;-1.554;2023-02-22T09:05:24;38.95;;;21.40;;
46463;SDS011;32161;48.148;-1.554;2023-02-22T09:07:51;38.17;;;22.90;;
46463;SDS011;32161;48.148;-1.554;2023-02-22T09:10:21;32.05;;;21.80;;
46463;SDS011;32161;48.148;-1.554;2023-02-22T09:12:53;36.67;;;22.15;;
46463;SDS011;32161;48.148;-1.554;2023-02-22T09:15:25;32.85;;;22.58;;
46463;SDS011;32161;48.148;-1.554;2023-02-22T09:17:53;36.08;;;23.02;;
46463;SDS011;32161;48.148;-1.554;2023-02-22T09:20:23;35.65;;;21.00;;
46463;SDS011;32161;48.148;-1.554;2023-02-22T09:22:51;34.53;;;23.40;;
46463;SDS011;32161;48.148;-1.554;2023-02-22T09:25:19;37.05;;;21.90;;
46463;SDS011;32161;48.148;-1.554;2023-02-22T09:27:48;34.05;;;20.63;;
46463;SDS011;32161;48.148;-1.554;2023-02-22T09:30:19;28.75;;;20.13;;
46463;SDS011;32161;48.148;-1.554;2023-02-22T09:32:51;29.85;;;19.38;;
46463;SDS011;32161;48.148;-1.554;2023-02-22T09:35:21;28.10;;;18.08;;
46463;SDS011;32161;48.148;-1.554;2023-02-22T09:37:51;29.90;;;18.00;;
46463;SDS011;32161;48.148;-1.554;2023-02-22T09:40:21;26.90;;;17.65;;
46463;SDS011;32161;48.148;-1.554;2023-02-22T09:48:49;25.15;;;16.75;;
46463;SDS011;32161;48.148;-1.554;2023-02-22T09:51:25;28.02;;;17.90;;
46463;SDS011;32161;48.148;-1.554;2023-02-22T09:54:01;27.10;;;16.90;;
46463;SDS011;32161;48.148;-1.554;2023-02-22T09:56:38;24.13;;;16.70;;
46463;SDS011;32161;48.148;-1.554;2023-02-22T09:59:09;32.03;;;17.90;;
46463;SDS011;32161;48.148;-1.554;2023-02-22T10:01:44;28.85;;;18.33;;
46463;SDS011;32161;48.148;-1.554;2023-02-22T10:04:16;25.48;;;18.27;;
46463;SDS011;32161;48.148;-1.554;2023-02-22T10:06:54;23.52;;;18.00;;
46463;SDS011;32161;48.148;-1.554;2023-02-22T10:09:31;28.02;;;17.60;;
46463;SDS011;32161;48.148;-1.554;2023-02-22T10:12:08;30.90;;;17.77;;
46463;SDS011;32161;48.148;-1.554;2023-02-22T10:14:43;30.02;;;18.00;;
46463;SDS011;32161;48.148;-1.554;2023-02-22T10:17:46;25.73;;;17.13;;
46463;SDS011;32161;48.148;-1.554;2023-02-22T10:20:33;26.80;;;16.35;;
46463;SDS011;32161;48.148;-1.554;2023-02-22T10:23:17;22.70;;;14.80;;
46463;SDS011;32161;48.148;-1.554;2023-02-22T10:25:54;27.48;;;16.23;;
46463;SDS011;32161;48.148;-1.554;2023-02-22T10:28:30;25.50;;;14.98;;
46463;SDS011;32161;48.148;-1.554;2023-02-22T10:31:06;26.42;;;14.85;;
46463;SDS011;32161;48.148;-1.554;2023-02-22T10:33:45;20.40;;;14.15;;
46463;SDS011;32161;48.148;-1.554;2023-02-22T10:36:16;20.58;;;14.23;;
46463;SDS011;32161;48.148;-1.554;2023-02-22T10:38:49;24.58;;;14.63;;
46463;SDS011;32161;48.148;-1.554;2023-02-22T10:41:22;31.60;;;15.23;;
46463;SDS011;32161;48.148;-1.554;2023-02-22T10:43:55;25.63;;;13.43;;
46463;SDS011;32161;48.148;-1.554;2023-02-22T10:46:23;39.20;;;17.10;;
46463;SDS011;32161;48.148;-1.554;2023-02-22T10:48:56;16.42;;;9.95;;
46463;SDS011;32161;48.148;-1.554;2023-02-22T10:51:31;19.05;;;10.23;;
46463;SDS011;32161;48.148;-1.554;2023-02-22T10:54:05;16.42;;;10.13;;
46463;SDS011;32161;48.148;-1.554;2023-02-22T10:56:51;22.45;;;11.52;;
46463;SDS011;32161;48.148;-1.554;2023-02-22T10:59:27;22.38;;;11.70;;
46463;SDS011;32161;48.148;-1.554;2023-02-22T11:01:58;29.00;;;13.57;;
46463;SDS011;32161;48.148;-1.554;2023-02-22T11:04:26;26.77;;;13.20;;
46463;SDS011;32161;48.148;-1.554;2023-02-22T11:07:12;14.25;;;10.98;;
46463;SDS011;32161;48.148;-1.554;2023-02-22T11:09:51;8.98;;;8.07;;
46463;SDS011;32161;48.148;-1.554;2023-02-22T11:12:25;9.07;;;6.80;;
46463;SDS011;32161;48.148;-1.554;2023-02-22T11:14:57;7.90;;;6.78;;
46463;SDS011;32161;48.148;-1.554;2023-02-22T11:17:54;8.35;;;6.47;;
46463;SDS011;32161;48.148;-1.554;2023-02-22T11:20:26;8.90;;;7.18;;
46463;SDS011;32161;48.148;-1.554;2023-02-22T11:22:59;11.18;;;6.97;;
46463;SDS011;32161;48.148;-1.554;2023-02-22T11:25:31;10.60;;;7.30;;
46463;SDS011;32161;48.148;-1.554;2023-02-22T11:28:05;8.55;;;6.25;;
46463;SDS011;32161;48.148;-1.554;2023-02-22T11:30:37;12.27;;;7.82;;
46463;SDS011;32161;48.148;-1.554;2023-02-22T11:33:09;15.45;;;8.27;;
46463;SDS011;32161;48.148;-1.554;2023-02-22T11:35:48;11.05;;;7.88;;
46463;SDS011;32161;48.148;-1.554;2023-02-22T11:38:19;10.18;;;8.38;;
46463;SDS011;32161;48.148;-1.554;2023-02-22T11:43:42;8.85;;;7.80;;
46463;SDS011;32161;48.148;-1.554;2023-02-22T11:46:12;10.18;;;7.57;;
46463;SDS011;32161;48.148;-1.554;2023-02-22T11:48:44;11.35;;;8.00;;
46463;SDS011;32161;48.148;-1.554;2023-02-22T11:51:25;9.98;;;8.32;;
46463;SDS011;32161;48.148;-1.554;2023-02-22T11:54:18;10.77;;;8.43;;
46463;SDS011;32161;48.148;-1.554;2023-02-22T11:57:06;11.15;;;8.00;;
46463;SDS011;32161;48.148;-1.554;2023-02-22T11:59:51;11.35;;;8.15;;
46463;SDS011;32161;48.148;-1.554;2023-02-22T12:02:45;11.23;;;8.38;;
46463;SDS011;32161;48.148;-1.554;2023-02-22T12:05:36;12.70;;;8.80;;
46463;SDS011;32161;48.148;-1.554;2023-02-22T12:08:26;11.77;;;8.50;;
46463;SDS011;32161;48.148;-1.554;2023-02-22T12:11:06;9.97;;;8.53;;
46463;SDS011;32161;48.148;-1.554;2023-02-22T12:13:47;10.90;;;7.88;;
46463;SDS011;32161;48.148;-1.554;2023-02-22T12:16:31;11.45;;;7.88;;
46463;SDS011;32161;48.148;-1.554;2023-02-22T12:21:50;5.55;;;5.03;;
46463;SDS011;32161;48.148;-1.554;2023-02-22T12:24:23;8.02;;;4.97;;
46463;SDS011;32161;48.148;-1.554;2023-02-22T12:26:58;4.78;;;3.65;;
46463;SDS011;32161;48.148;-1.554;2023-02-22T12:29:36;2.47;;;2.20;;
46463;SDS011;32161;48.148;-1.554;2023-02-22T12:32:12;2.05;;;1.75;;
46463;SDS011;32161;48.148;-1.554;2023-02-22T12:34:45;1.40;;;1.30;;
46463;SDS011;32161;48.148;-1.554;2023-02-22T12:37:19;1.90;;;1.80;;
46463;SDS011;32161;48.148;-1.554;2023-02-22T12:39:53;4.50;;;1.30;;
46463;SDS011;32161;48.148;-1.554;2023-02-22T12:42:33;2.20;;;1.17;;
46463;SDS011;32161;48.148;-1.554;2023-02-22T12:47:53;1.10;;;0.88;;
46463;SDS011;32161;48.148;-1.554;2023-02-22T12:50:31;0.85;;;0.52;;
46463;SDS011;32161;48.148;-1.554;2023-02-22T12:53:03;3.03;;;0.52;;
46463;SDS011;32161;48.148;-1.554;2023-02-22T12:55:40;2.28;;;0.93;;
46463;SDS011;32161;48.148;-1.554;2023-02-22T12:58:17;1.48;;;0.60;;
46463;SDS011;32161;48.148;-1.554;2023-02-22T13:00:55;2.42;;;0.75;;
46463;SDS011;32161;48.148;-1.554;2023-02-22T13:03:30;2.95;;;0.73;;
46463;SDS011;32161;48.148;-1.554;2023-02-22T13:06:08;3.42;;;0.57;;
46463;SDS011;32161;48.148;-1.554;2023-02-22T13:08:52;5.25;;;0.70;;
46463;SDS011;32161;48.148;-1.554;2023-02-22T13:11:35;5.45;;;0.80;;
46463;SDS011;32161;48.148;-1.554;2023-02-22T13:14:15;8.50;;;1.92;;
46463;SDS011;32161;48.148;-1.554;2023-02-22T13:17:05;4.80;;;0.77;;
46463;SDS011;32161;48.148;-1.554;2023-02-22T13:19:45;2.03;;;0.73;;
46463;SDS011;32161;48.148;-1.554;2023-02-22T13:22:22;3.17;;;0.80;;
46463;SDS011;32161;48.148;-1.554;2023-02-22T13:25:00;6.03;;;1.15;;
46463;SDS011;32161;48.148;-1.554;2023-02-22T13:27:37;6.80;;;0.70;;
46463;SDS011;32161;48.148;-1.554;2023-02-22T13:30:17;6.82;;;1.58;;
46463;SDS011;32161;48.148;-1.554;2023-02-22T13:33:06;8.10;;;1.10;;
46463;SDS011;32161;48.148;-1.554;2023-02-22T13:36:06;6.13;;;0.98;;
46463;SDS011;32161;48.148;-1.554;2023-02-22T13:42:21;5.57;;;1.20;;
46463;SDS011;32161;48.148;-1.554;2023-02-22T13:45:31;5.55;;;1.30;;
46463;SDS011;32161;48.148;-1.554;2023-02-22T13:51:46;4.18;;;1.77;;
46463;SDS011;32161;48.148;-1.554;2023-02-22T13:54:20;7.68;;;1.33;;
46463;SDS011;32161;48.148;-1.554;2023-02-22T13:56:52;4.95;;;0.98;;
46463;SDS011;32161;48.148;-1.554;2023-02-22T13:59:26;4.03;;;0.90;;
46463;SDS011;32161;48.148;-1.554;2023-02-22T14:01:58;12.68;;;1.80;;
46463;SDS011;32161;48.148;-1.554;2023-02-22T14:10:37;11.50;;;2.20;;
46463;SDS011;32161;48.148;-1.554;2023-02-22T14:13:14;7.05;;;1.30;;
46463;SDS011;32161;48.148;-1.554;2023-02-22T14:18:49;16.73;;;3.08;;
46463;SDS011;32161;48.148;-1.554;2023-02-22T14:21:32;5.65;;;1.80;;
46463;SDS011;32161;48.148;-1.554;2023-02-22T14:24:06;10.60;;;1.30;;
46463;SDS011;32161;48.148;-1.554;2023-02-22T14:26:39;8.10;;;1.65;;
46463;SDS011;32161;48.148;-1.554;2023-02-22T14:29:19;6.20;;;1.63;;
46463;SDS011;32161;48.148;-1.554;2023-02-22T14:32:03;10.18;;;1.92;;
46463;SDS011;32161;48.148;-1.554;2023-02-22T14:34:39;10.77;;;1.45;;
46463;SDS011;32161;48.148;-1.554;2023-02-22T14:37:20;8.48;;;1.58;;
46463;SDS011;32161;48.148;-1.554;2023-02-22T14:39:52;9.43;;;1.90;;
46463;SDS011;32161;48.148;-1.554;2023-02-22T14:42:30;4.75;;;1.75;;
46463;SDS011;32161;48.148;-1.554;2023-02-22T14:45:02;7.95;;;1.85;;
46463;SDS011;32161;48.148;-1.554;2023-02-22T14:47:44;13.82;;;2.58;;
46463;SDS011;32161;48.148;-1.554;2023-02-22T14:50:19;8.15;;;1.42;;
46463;SDS011;32161;48.148;-1.554;2023-02-22T14:52:57;4.95;;;1.63;;
46463;SDS011;32161;48.148;-1.554;2023-02-22T14:55:29;2.78;;;1.05;;
46463;SDS011;32161;48.148;-1.554;2023-02-22T14:57:59;6.55;;;1.23;;
46463;SDS011;32161;48.148;-1.554;2023-02-22T15:00:37;7.28;;;1.13;;
46463;SDS011;32161;48.148;-1.554;2023-02-22T15:03:10;5.80;;;1.25;;
46463;SDS011;32161;48.148;-1.554;2023-02-22T15:05:52;8.82;;;1.13;;
46463;SDS011;32161;48.148;-1.554;2023-02-22T15:08:25;10.05;;;1.33;;
46463;SDS011;32161;48.148;-1.554;2023-02-22T15:10:53;11.20;;;1.85;;
46463;SDS011;32161;48.148;-1.554;2023-02-22T15:13:22;10.27;;;1.00;;
46463;SDS011;32161;48.148;-1.554;2023-02-22T15:15:56;7.28;;;1.00;;
46463;SDS011;32161;48.148;-1.554;2023-02-22T15:18:26;4.47;;;1.38;;
46463;SDS011;32161;48.148;-1.554;2023-02-22T15:21:02;9.68;;;1.70;;
46463;SDS011;32161;48.148;-1.554;2023-02-22T15:23:40;6.13;;;1.00;;
46463;SDS011;32161;48.148;-1.554;2023-02-22T15:26:17;7.03;;;0.82;;
46463;SDS011;32161;48.148;-1.554;2023-02-22T15:28:53;4.03;;;1.00;;
46463;SDS011;32161;48.148;-1.554;2023-02-22T15:31:23;6.00;;;0.80;;